map of TYN home
TYN - Airport
Location
City:  Taiyuan, Shaanxi, China
Name:Taiyuan Wusu International Airport
ICAO:ZBYN
IATA:TYN

Details
Type:Airport (Aerodrome, Airfield)
Use:Public/Civil, International (customs port of entry)
Latitude:3745'N (37.748)
Longitude:11238'E (112.630)
Elevation:2579 ft (786 m)
Variation:5.32W (WMM2015 magnetic declination)
-0.05 annual change
Runways:1
Longest:11811 × 148 ft (3600 × 45 m), paved

Time
Time Zone:UTC+8
Local Time:

Weather
METAR:ZBYN 161600Z 28004MPS CAVOK 01/M15 Q1024 NOSIG

Related Locations
Nearby:
Farthest:CCT: 12417 mi / 19984 km
Colonia Catriel, R, AR

Find:

   beyond  
but within

Other Information
Maps:
NOTAMs:
Links:
Sources:

  
  • flag of China
  

Sectional Chart

Flight Planning
at skyvector.com

Satellite Image

Google Maps Satellite view

 

Copyright © 2004-2018 Karl L. Swartz. All rights reserved.
The Great Circle Mapper name and logo are trademarks of the Great Circle Mapper.
All other trademarks mentioned herein belong to their respective owners.
Please see credits for attibutions and further copyright information.

  Follow gcmap on Facebook Follow gcmap on Twitter Follow gcmap on Google+ GCmap on LinkedIn

hCard Microformat

Geo Microformat